createdAt,value
2019-05-13T00:00:34.078Z,4.15
2019-05-13T00:03:03.623Z,3.70
2019-05-13T00:05:33.981Z,4.10
2019-05-13T00:08:03.429Z,3.65
2019-05-13T00:10:34.723Z,3.80
2019-05-13T00:13:04.476Z,3.85
2019-05-13T00:15:34.135Z,3.47
2019-05-13T00:18:03.963Z,4.33
2019-05-13T00:20:33.859Z,3.47
2019-05-13T00:23:03.882Z,3.58
2019-05-13T00:25:33.913Z,4.20
2019-05-13T00:28:04.058Z,3.85
2019-05-13T00:30:34.461Z,3.55
2019-05-13T00:33:03.722Z,3.70
2019-05-13T00:35:33.921Z,3.75
2019-05-13T00:38:03.860Z,4.53
2019-05-13T00:40:33.870Z,3.58
2019-05-13T00:43:03.917Z,3.75
2019-05-13T00:45:33.899Z,4.08
2019-05-13T00:48:04.520Z,4.35
2019-05-13T00:50:34.363Z,4.08
2019-05-13T00:53:04.387Z,3.55
2019-05-13T00:55:34.567Z,3.70
2019-05-13T00:58:04.791Z,4.33
2019-05-13T01:00:34.359Z,4.17
2019-05-13T01:03:04.001Z,4.78
2019-05-13T01:05:34.017Z,4.30
2019-05-13T01:08:04.224Z,4.22
2019-05-13T01:10:34.818Z,4.30
2019-05-13T01:13:04.750Z,4.05
2019-05-13T01:15:34.517Z,3.92
2019-05-13T01:18:03.922Z,4.05
2019-05-13T01:20:34.405Z,4.22
2019-05-13T01:23:03.960Z,4.17
2019-05-13T01:25:34.326Z,5.00
2019-05-13T01:28:04.481Z,4.60
2019-05-13T01:30:34.795Z,4.15
2019-05-13T01:33:04.343Z,4.42
2019-05-13T01:35:34.257Z,5.10
2019-05-13T01:38:04.598Z,5.00
2019-05-13T01:40:34.904Z,4.47
2019-05-13T01:43:04.030Z,5.22
2019-05-13T01:45:33.904Z,4.78
2019-05-13T01:48:07.065Z,5.58
2019-05-13T01:50:34.075Z,5.85
2019-05-13T01:53:04.266Z,5.67
2019-05-13T01:55:33.995Z,5.08
2019-05-13T01:58:04.241Z,5.12
2019-05-13T02:00:35.484Z,6.00
2019-05-13T02:03:04.334Z,4.85
2019-05-13T02:05:34.021Z,4.65
2019-05-13T02:08:04.453Z,5.12
2019-05-13T02:10:54.437Z,6.08
2019-05-13T02:13:24.667Z,5.60
2019-05-13T02:15:55.186Z,5.58
2019-05-13T02:18:24.844Z,6.20
2019-05-13T02:20:55.460Z,6.55
2019-05-13T02:23:24.420Z,5.97
2019-05-13T02:25:54.413Z,6.25
2019-05-13T02:28:24.801Z,6.45
2019-05-13T02:30:55.750Z,7.35
2019-05-13T02:33:24.455Z,7.35
2019-05-13T02:35:53.640Z,6.83
2019-05-13T02:38:26.408Z,7.75
2019-05-13T02:40:53.647Z,7.85
2019-05-13T02:43:23.672Z,7.70
2019-05-13T02:45:54.106Z,8.70
2019-05-13T02:48:23.886Z,8.18
2019-05-13T02:50:54.080Z,8.05
2019-05-13T02:53:23.997Z,9.13
2019-05-13T02:55:53.802Z,9.38
2019-05-13T02:58:24.177Z,8.83
2019-05-13T03:00:53.802Z,9.20
2019-05-13T03:03:23.640Z,8.58
2019-05-13T03:05:53.419Z,9.13
2019-05-13T03:08:35.331Z,9.88
2019-05-13T03:10:53.790Z,9.13
2019-05-13T03:13:23.661Z,8.98
2019-05-13T03:16:13.211Z,10.08
2019-05-13T03:18:43.513Z,10.30
2019-05-13T03:21:13.123Z,10.30
2019-05-13T03:23:43.991Z,9.58
2019-05-13T03:26:13.030Z,9.55
2019-05-13T03:28:43.683Z,10.20
2019-05-13T03:31:17.211Z,9.80
2019-05-13T03:33:46.215Z,9.55
2019-05-13T03:36:16.235Z,10.45
2019-05-13T03:38:59.728Z,10.53
2019-05-13T03:41:17.966Z,11.90
2019-05-13T03:43:48.234Z,11.20
2019-05-13T03:46:23.070Z,11.88
2019-05-13T03:48:56.795Z,12.43
2019-05-13T03:51:25.484Z,11.75
2019-05-13T03:53:54.266Z,11.88
2019-05-13T03:56:23.888Z,11.55
2019-05-13T03:58:53.814Z,12.20
2019-05-13T04:01:23.166Z,13.20
2019-05-13T04:03:52.884Z,14.10
2019-05-13T04:06:23.221Z,13.22
2019-05-13T04:08:53.971Z,13.35
2019-05-13T04:11:23.466Z,13.03
2019-05-13T04:13:52.939Z,12.90
2019-05-13T04:16:23.624Z,13.25
2019-05-13T04:18:53.614Z,13.30
2019-05-13T04:21:23.293Z,14.05
2019-05-13T04:23:53.261Z,15.05
2019-05-13T04:26:23.642Z,13.80
2019-05-13T04:28:52.815Z,12.95
2019-05-13T04:31:22.923Z,14.23
2019-05-13T04:33:53.113Z,14.15
2019-05-13T04:36:23.638Z,15.35
2019-05-13T04:38:53.061Z,14.75
2019-05-13T04:41:23.205Z,15.20
2019-05-13T04:43:54.167Z,14.25
2019-05-13T04:46:23.091Z,14.73
2019-05-13T04:48:53.087Z,14.40
2019-05-13T04:51:22.815Z,14.35
2019-05-13T04:53:56.129Z,13.78
2019-05-13T04:56:22.571Z,13.58
2019-05-13T04:58:52.860Z,15.48
2019-05-13T05:01:55.335Z,14.35
2019-05-13T05:04:33.941Z,14.18
2019-05-13T05:07:15.742Z,12.93
2019-05-13T05:10:26.550Z,13.50
2019-05-13T05:13:05.714Z,13.08
2019-05-13T05:15:43.141Z,13.62
2019-05-13T05:18:37.320Z,13.48
2019-05-13T05:21:24.088Z,12.20
2019-05-13T05:24:12.191Z,11.63
2019-05-13T05:27:15.249Z,11.75
2019-05-13T05:30:21.836Z,12.30
2019-05-13T05:33:21.395Z,10.45
2019-05-13T05:36:05.162Z,9.33
2019-05-13T05:38:54.374Z,9.00
2019-05-13T05:41:24.950Z,8.18
2019-05-13T05:43:55.424Z,8.98
2019-05-13T05:46:24.953Z,9.58
2019-05-13T05:48:55.717Z,8.28
2019-05-13T05:51:25.333Z,7.47
2019-05-13T05:53:56.069Z,8.30
2019-05-13T05:56:26.729Z,7.10
2019-05-13T05:58:56.761Z,6.17
2019-05-13T06:01:25.361Z,6.75
2019-05-13T06:03:56.302Z,7.30
2019-05-13T06:06:24.765Z,6.83
2019-05-13T06:08:53.220Z,6.55
2019-05-13T06:11:22.352Z,7.62
2019-05-13T06:13:53.964Z,7.40
2019-05-13T06:16:21.883Z,5.90
2019-05-13T06:18:52.270Z,6.15
2019-05-13T06:21:21.611Z,6.83
2019-05-13T06:23:51.859Z,6.60
2019-05-13T06:26:23.622Z,7.10
2019-05-13T06:28:52.080Z,6.85
2019-05-13T06:31:21.528Z,6.60
2019-05-13T06:33:51.427Z,5.05
2019-05-13T06:36:22.168Z,5.35
2019-05-13T06:38:51.310Z,4.35
2019-05-13T06:41:22.000Z,4.72
2019-05-13T06:43:52.433Z,3.85
2019-05-13T06:46:21.865Z,4.25
2019-05-13T06:48:52.086Z,3.90
2019-05-13T06:51:22.203Z,3.60
2019-05-13T06:53:51.780Z,3.55
2019-05-13T06:56:21.758Z,3.42
2019-05-13T06:58:52.031Z,2.95
2019-05-13T07:01:21.731Z,3.52
2019-05-13T07:03:51.812Z,3.10
2019-05-13T07:06:21.670Z,3.10
2019-05-13T07:08:52.121Z,3.22
2019-05-13T07:11:24.140Z,3.00
2019-05-13T07:13:51.814Z,3.50
2019-05-13T07:16:22.351Z,4.05
2019-05-13T07:18:52.297Z,4.00
2019-05-13T07:21:22.859Z,3.95
2019-05-13T07:23:54.709Z,3.75
2019-05-13T07:26:22.154Z,4.50
2019-05-13T07:28:52.384Z,3.90
2019-05-13T07:31:21.913Z,5.03
2019-05-13T07:33:51.750Z,4.53
2019-05-13T07:36:22.546Z,3.70
2019-05-13T07:38:52.142Z,3.72
2019-05-13T07:41:35.216Z,4.00
2019-05-13T07:43:51.777Z,4.30
2019-05-13T07:46:21.755Z,4.28
2019-05-13T07:48:52.076Z,4.00
2019-05-13T07:51:22.188Z,4.17
2019-05-13T07:53:51.767Z,3.30
2019-05-13T07:56:21.837Z,3.12
2019-05-13T07:58:52.318Z,3.15
2019-05-13T08:01:22.076Z,3.62
2019-05-13T08:03:51.714Z,3.15
2019-05-13T08:06:21.941Z,2.65
2019-05-13T08:08:52.317Z,2.75
2019-05-13T08:11:22.389Z,2.52
2019-05-13T08:13:51.917Z,2.70
2019-05-13T08:16:22.362Z,2.25
2019-05-13T08:18:52.394Z,2.77
2019-05-13T08:21:21.566Z,2.90
2019-05-13T08:23:52.445Z,1.95
2019-05-13T08:26:21.703Z,2.77
2019-05-13T08:29:00.235Z,3.33
2019-05-13T08:31:21.657Z,2.80
2019-05-13T08:33:51.926Z,3.27
2019-05-13T08:36:23.308Z,2.72
2019-05-13T08:38:51.975Z,3.00
2019-05-13T08:41:23.466Z,3.08
2019-05-13T08:43:52.422Z,2.67
2019-05-13T08:46:21.824Z,3.92
2019-05-13T08:48:51.796Z,3.47
2019-05-13T08:51:22.058Z,3.58
2019-05-13T08:53:51.673Z,3.75
2019-05-13T08:56:21.803Z,3.00
2019-05-13T08:58:52.127Z,3.70
2019-05-13T09:01:22.731Z,4.40
2019-05-13T09:03:52.262Z,3.40
2019-05-13T09:06:22.086Z,2.95
2019-05-13T09:08:53.761Z,3.25
2019-05-13T09:11:22.246Z,3.83
2019-05-13T09:13:51.627Z,3.40
2019-05-13T09:16:21.463Z,3.87
2019-05-13T09:18:52.126Z,3.50
2019-05-13T09:21:22.498Z,3.65
2019-05-13T09:23:51.603Z,3.30
2019-05-13T09:26:22.543Z,3.47
2019-05-13T09:28:52.145Z,3.67
2019-05-13T09:31:22.109Z,3.15
2019-05-13T09:33:52.094Z,3.65
2019-05-13T09:36:21.766Z,3.25
2019-05-13T09:38:52.543Z,3.12
2019-05-13T09:41:21.538Z,3.05
2019-05-13T09:43:51.419Z,2.75
2019-05-13T09:46:22.375Z,2.35
2019-05-13T09:48:51.674Z,2.45
2019-05-13T09:51:21.644Z,2.92
2019-05-13T09:53:51.953Z,2.75
2019-05-13T09:56:22.364Z,2.77
2019-05-13T09:58:51.393Z,2.40
2019-05-13T10:01:22.558Z,2.67
2019-05-13T10:03:54.770Z,2.45
2019-05-13T10:06:22.233Z,2.17
2019-05-13T10:08:52.724Z,2.72
2019-05-13T10:11:21.844Z,3.15
2019-05-13T10:13:51.606Z,3.50
2019-05-13T10:16:22.077Z,2.80
2019-05-13T10:18:52.435Z,3.00
2019-05-13T10:21:21.834Z,3.27
2019-05-13T10:23:52.285Z,3.12
2019-05-13T10:26:22.624Z,3.40
2019-05-13T10:28:51.544Z,3.25
2019-05-13T10:31:22.012Z,3.20
2019-05-13T10:33:51.572Z,3.95
2019-05-13T10:36:22.275Z,3.20
2019-05-13T10:38:52.148Z,3.30
2019-05-13T10:41:22.210Z,3.08
2019-05-13T10:43:52.004Z,3.60
2019-05-13T10:46:22.074Z,2.55
2019-05-13T10:48:52.605Z,3.45
2019-05-13T10:51:23.964Z,3.20
2019-05-13T10:53:53.483Z,3.80
2019-05-13T10:56:22.880Z,3.80
2019-05-13T10:58:53.352Z,3.58
2019-05-13T11:01:22.697Z,3.15
2019-05-13T11:03:52.395Z,2.60
2019-05-13T11:06:21.883Z,2.50
2019-05-13T11:08:53.158Z,2.62
2019-05-13T11:11:22.092Z,2.60
2019-05-13T11:13:58.769Z,2.95
2019-05-13T11:16:22.571Z,2.50
2019-05-13T11:18:51.898Z,2.92
2019-05-13T11:21:22.218Z,2.35
2019-05-13T11:23:51.828Z,2.50
2019-05-13T11:26:21.974Z,2.62
2019-05-13T11:28:52.295Z,2.60
2019-05-13T11:31:22.354Z,3.02
2019-05-13T11:33:52.116Z,2.80
2019-05-13T11:36:23.267Z,2.95
2019-05-13T11:38:53.140Z,3.02
2019-05-13T11:41:22.947Z,3.10
2019-05-13T11:44:09.216Z,2.55
2019-05-13T11:46:22.730Z,2.33
2019-05-13T11:48:52.118Z,2.72
2019-05-13T11:51:24.220Z,2.50
2019-05-13T11:53:52.507Z,2.37
2019-05-13T11:56:22.999Z,2.52
2019-05-13T11:58:53.289Z,2.05
2019-05-13T12:01:22.935Z,2.00
2019-05-13T12:03:53.060Z,2.30
2019-05-13T12:06:23.288Z,2.30
2019-05-13T12:08:55.296Z,2.47
2019-05-13T12:11:22.944Z,2.98
2019-05-13T12:13:52.741Z,2.60
2019-05-13T12:16:22.849Z,2.20
2019-05-13T12:18:52.843Z,2.22
2019-05-13T12:21:21.726Z,2.30
2019-05-13T12:23:52.772Z,2.02
2019-05-13T12:26:23.437Z,2.17
2019-05-13T12:28:53.589Z,2.10
2019-05-13T12:31:22.203Z,3.10
2019-05-13T12:33:52.206Z,2.85
2019-05-13T12:36:23.496Z,2.52
2019-05-13T12:38:53.925Z,2.60
2019-05-13T12:41:23.203Z,2.90
2019-05-13T12:43:54.064Z,2.80
2019-05-13T12:46:24.703Z,2.72
2019-05-13T12:48:52.481Z,2.80
2019-05-13T12:51:22.643Z,2.52
2019-05-13T12:53:52.882Z,2.98
2019-05-13T12:56:23.590Z,3.02
2019-05-13T12:58:52.445Z,2.52
2019-05-13T13:01:23.838Z,2.70
2019-05-13T13:03:52.033Z,2.40
2019-05-13T13:06:30.357Z,2.80
2019-05-13T13:08:51.008Z,2.55
2019-05-13T13:11:22.784Z,3.12
2019-05-13T13:13:58.989Z,2.97
2019-05-13T13:16:21.275Z,2.72
2019-05-13T13:18:52.154Z,3.37
2019-05-13T13:21:23.601Z,3.00
2019-05-13T13:23:51.633Z,2.98
2019-05-13T13:26:21.804Z,2.90
2019-05-13T13:28:55.118Z,2.90
2019-05-13T13:31:25.094Z,3.00
2019-05-13T13:33:55.139Z,2.77
2019-05-13T13:36:24.137Z,2.60
2019-05-13T13:38:56.257Z,3.42
2019-05-13T13:41:23.416Z,3.12
2019-05-13T13:43:53.848Z,2.75
2019-05-13T13:46:35.983Z,2.92
2019-05-13T13:48:55.195Z,2.90
2019-05-13T13:51:26.565Z,3.00
2019-05-13T13:53:56.515Z,2.70
2019-05-13T13:56:25.644Z,3.08
2019-05-13T13:58:54.279Z,2.85
2019-05-13T14:01:27.311Z,2.25
2019-05-13T14:03:53.340Z,2.77
2019-05-13T14:07:22.767Z,2.85
2019-05-13T14:08:52.261Z,2.62
2019-05-13T14:11:23.176Z,2.80
2019-05-13T14:13:51.852Z,2.80
2019-05-13T14:16:29.602Z,2.30
2019-05-13T14:18:52.317Z,2.50
2019-05-13T14:21:21.798Z,2.62
2019-05-13T14:23:52.076Z,3.17
2019-05-13T14:26:22.190Z,2.95
2019-05-13T14:28:53.675Z,3.40
2019-05-13T14:31:21.671Z,3.40
2019-05-13T14:33:52.074Z,2.62
2019-05-13T14:36:23.054Z,2.62
2019-05-13T14:38:52.656Z,3.05
2019-05-13T14:41:22.038Z,3.08
2019-05-13T14:43:51.710Z,2.65
2019-05-13T14:46:27.094Z,3.00
2019-05-13T14:48:50.929Z,2.37
2019-05-13T14:51:21.727Z,2.35
2019-05-13T14:53:51.777Z,2.65
2019-05-13T14:56:22.172Z,2.80
2019-05-13T14:58:52.126Z,3.20
2019-05-13T15:01:22.788Z,2.75
2019-05-13T15:03:52.838Z,2.75
2019-05-13T15:06:22.214Z,3.00
2019-05-13T15:08:52.632Z,3.37
2019-05-13T15:11:22.059Z,2.98
2019-05-13T15:13:51.799Z,3.02
2019-05-13T15:16:22.382Z,3.60
2019-05-13T15:18:52.511Z,3.17
2019-05-13T15:21:21.463Z,2.70
2019-05-13T15:23:51.719Z,2.50
2019-05-13T15:26:22.195Z,2.67
2019-05-13T15:28:51.864Z,3.15
2019-05-13T15:31:22.336Z,2.98
2019-05-13T15:33:52.352Z,3.17
2019-05-13T15:36:22.521Z,2.10
2019-05-13T15:38:51.946Z,2.60
2019-05-13T15:41:21.130Z,2.60
2019-05-13T15:43:51.949Z,2.62
2019-05-13T15:46:21.970Z,2.37
2019-05-13T15:48:51.442Z,2.40
2019-05-13T15:51:22.143Z,3.05
2019-05-13T15:53:51.726Z,3.17
2019-05-13T15:56:22.453Z,2.65
2019-05-13T15:58:52.968Z,3.00
2019-05-13T16:01:22.906Z,2.52
2019-05-13T16:03:52.504Z,3.20
2019-05-13T16:06:21.318Z,2.42
2019-05-13T16:08:51.882Z,2.50
2019-05-13T16:11:21.922Z,2.58
2019-05-13T16:13:51.774Z,2.50
2019-05-13T16:16:22.005Z,2.83
2019-05-13T16:18:51.529Z,2.50
2019-05-13T16:21:20.530Z,2.70
2019-05-13T16:23:49.063Z,2.45
2019-05-13T16:26:19.348Z,2.70
2019-05-13T16:28:47.978Z,2.60
2019-05-13T16:31:16.601Z,2.70
2019-05-13T16:33:45.377Z,3.00
2019-05-13T16:36:13.992Z,2.80
2019-05-13T16:38:42.562Z,2.95
2019-05-13T16:41:12.521Z,2.83
2019-05-13T16:43:42.546Z,2.62
2019-05-13T16:46:12.125Z,2.80
2019-05-13T16:48:41.754Z,2.58
2019-05-13T16:51:12.480Z,2.55
2019-05-13T16:53:42.125Z,2.45
2019-05-13T16:56:25.688Z,2.37
2019-05-13T16:58:41.966Z,2.42
2019-05-13T17:01:11.680Z,2.72
2019-05-13T17:03:41.399Z,2.20
2019-05-13T17:06:12.520Z,2.45
2019-05-13T17:08:42.396Z,2.85
2019-05-13T17:11:11.887Z,1.80
2019-05-13T17:13:42.151Z,1.95
2019-05-13T17:16:11.002Z,2.08
2019-05-13T17:18:41.743Z,2.27
2019-05-13T17:21:10.352Z,2.17
2019-05-13T17:23:38.893Z,2.20
2019-05-13T17:26:07.849Z,2.30
2019-05-13T17:28:38.009Z,2.10
2019-05-13T17:31:06.879Z,1.95
2019-05-13T17:33:35.586Z,2.30
2019-05-13T17:36:04.173Z,2.05
2019-05-13T17:38:32.814Z,2.20
2019-05-13T17:41:02.560Z,2.10
2019-05-13T17:43:32.029Z,2.02
2019-05-13T17:46:01.666Z,2.35
2019-05-13T17:48:32.799Z,2.20
2019-05-13T17:51:01.417Z,1.92
2019-05-13T17:53:32.273Z,1.95
2019-05-13T17:56:02.365Z,1.85
2019-05-13T17:58:31.385Z,2.15
2019-05-13T18:01:01.906Z,2.17
2019-05-13T18:03:32.122Z,2.27
2019-05-13T18:06:02.515Z,2.35
2019-05-13T18:08:32.068Z,2.02
2019-05-13T18:11:02.392Z,2.10
2019-05-13T18:13:31.822Z,2.15
2019-05-13T18:16:02.410Z,1.85
2019-05-13T18:18:40.589Z,2.10
2019-05-13T18:21:01.783Z,1.87
2019-05-13T18:23:30.362Z,2.08
2019-05-13T18:26:01.727Z,2.20
2019-05-13T18:28:31.418Z,1.92
2019-05-13T18:31:01.726Z,2.10
2019-05-13T18:33:31.979Z,2.10
2019-05-13T18:36:01.945Z,2.08
2019-05-13T18:38:31.279Z,1.90
2019-05-13T18:41:01.691Z,2.00
2019-05-13T18:43:32.163Z,2.37
2019-05-13T18:46:02.074Z,2.37
2019-05-13T18:48:32.279Z,2.00
2019-05-13T18:51:01.494Z,2.10
2019-05-13T18:53:32.083Z,2.27
2019-05-13T18:56:01.989Z,2.05
2019-05-13T18:58:31.626Z,2.05
2019-05-13T19:01:01.473Z,2.02
2019-05-13T19:03:32.196Z,2.02
2019-05-13T19:06:00.391Z,2.02
2019-05-13T19:08:28.852Z,2.35
2019-05-13T19:10:58.022Z,1.95
2019-05-13T19:13:26.551Z,2.20
2019-05-13T19:15:55.161Z,2.40
2019-05-13T19:18:23.840Z,2.50
2019-05-13T19:20:52.446Z,2.60
2019-05-13T19:23:21.061Z,2.70
2019-05-13T19:25:51.368Z,2.47
2019-05-13T19:28:22.128Z,2.17
2019-05-13T19:30:51.571Z,2.37
2019-05-13T19:33:22.078Z,2.10
2019-05-13T19:35:51.845Z,2.22
2019-05-13T19:38:21.211Z,2.15
2019-05-13T19:40:50.220Z,2.02
2019-05-13T19:43:18.705Z,2.50
2019-05-13T19:45:47.275Z,2.35
2019-05-13T19:48:15.786Z,2.30
2019-05-13T19:50:44.476Z,2.05
2019-05-13T19:53:13.007Z,2.40
2019-05-13T19:55:41.706Z,1.90
2019-05-13T19:58:12.467Z,2.10
2019-05-13T20:00:42.399Z,1.67
2019-05-13T20:03:12.069Z,1.87
2019-05-13T20:05:41.524Z,1.50
2019-05-13T20:08:10.316Z,1.42
2019-05-13T20:10:39.089Z,1.52
2019-05-13T20:13:07.562Z,1.70
2019-05-13T20:15:36.071Z,1.67
2019-05-13T20:18:04.724Z,1.55
2019-05-13T20:20:34.381Z,1.72
2019-05-13T20:23:02.921Z,1.90
2019-05-13T20:25:31.427Z,1.70
2019-05-13T20:28:02.144Z,1.87
2019-05-13T20:30:30.429Z,1.85
2019-05-13T20:32:59.146Z,2.00
2019-05-13T20:35:27.610Z,1.92
2019-05-13T20:37:56.147Z,2.10
2019-05-13T20:40:24.773Z,2.12
2019-05-13T20:42:53.347Z,2.02
2019-05-13T20:45:22.414Z,2.12
2019-05-13T20:47:51.221Z,2.40
2019-05-13T20:50:21.718Z,2.15
2019-05-13T20:52:51.632Z,2.25
2019-05-13T20:55:22.063Z,2.20
2019-05-13T20:57:53.116Z,2.60
2019-05-13T21:00:21.434Z,2.95
2019-05-13T21:02:51.728Z,2.52
2019-05-13T21:05:21.717Z,3.15
2019-05-13T21:07:51.564Z,3.15
2019-05-13T21:10:21.675Z,3.05
2019-05-13T21:12:51.436Z,3.00
2019-05-13T21:15:20.220Z,2.95
2019-05-13T21:17:48.906Z,3.10
2019-05-13T21:20:22.038Z,3.95
2019-05-13T21:22:48.075Z,3.60
2019-05-13T21:25:16.870Z,3.30
2019-05-13T21:27:45.452Z,3.42
2019-05-13T21:30:14.502Z,3.95
2019-05-13T21:32:43.346Z,3.90
2019-05-13T21:35:12.152Z,4.60
2019-05-13T21:37:40.636Z,3.95
2019-05-13T21:40:11.195Z,4.40
2019-05-13T21:42:41.987Z,4.62
2019-05-13T21:45:11.225Z,4.30
2019-05-13T21:47:40.156Z,4.40
2019-05-13T21:50:11.323Z,4.45
2019-05-13T21:52:41.860Z,5.10
2019-05-13T21:55:11.378Z,4.45
2019-05-13T21:57:41.543Z,4.53
2019-05-13T22:00:13.170Z,4.45
2019-05-13T22:02:41.666Z,4.85
2019-05-13T22:05:11.648Z,4.92
2019-05-13T22:07:42.126Z,5.05
2019-05-13T22:10:11.079Z,4.33
2019-05-13T22:12:41.500Z,4.35
2019-05-13T22:15:10.268Z,4.72
2019-05-13T22:17:38.732Z,4.72
2019-05-13T22:20:08.121Z,4.58
2019-05-13T22:22:36.673Z,4.60
2019-05-13T22:25:07.523Z,4.78
2019-05-13T22:27:36.082Z,4.62
2019-05-13T22:30:06.580Z,4.60
2019-05-13T22:32:35.258Z,4.85
2019-05-13T22:35:04.561Z,5.08
2019-05-13T22:37:33.047Z,4.95
2019-05-13T22:40:04.111Z,5.12
2019-05-13T22:42:32.332Z,4.87
2019-05-13T22:45:02.824Z,4.90
2019-05-13T22:47:31.571Z,4.92
2019-05-13T22:50:02.077Z,4.67
2019-05-13T22:52:31.285Z,4.55
2019-05-13T22:55:02.369Z,4.83
2019-05-13T22:57:31.346Z,5.08
2019-05-13T23:00:00.061Z,5.30
2019-05-13T23:02:28.826Z,5.47
2019-05-13T23:04:57.547Z,4.97
2019-05-13T23:07:26.101Z,5.12
2019-05-13T23:09:54.879Z,5.08
2019-05-13T23:12:24.580Z,5.40
2019-05-13T23:14:53.035Z,5.70
2019-05-13T23:17:21.730Z,5.55
2019-05-13T23:19:52.157Z,5.72
2019-05-13T23:22:20.574Z,5.65
2019-05-13T23:24:49.269Z,5.45
2019-05-13T23:27:17.762Z,5.42
2019-05-13T23:29:46.280Z,5.42
2019-05-13T23:32:14.924Z,5.53
2019-05-13T23:34:43.402Z,5.78
2019-05-13T23:37:12.006Z,5.65
2019-05-13T23:39:41.656Z,5.33
2019-05-13T23:42:12.175Z,5.33
2019-05-13T23:44:41.574Z,4.83
2019-05-13T23:47:11.427Z,5.00
2019-05-13T23:49:42.171Z,4.97
2019-05-13T23:52:11.682Z,5.12
2019-05-13T23:54:42.411Z,4.85
2019-05-13T23:57:11.770Z,4.75
2019-05-13T23:59:42.011Z,4.80
